Time;durP1;ratioP1;P1;durP2;ratioP2;P2;SDS_P1;SDS_P2;PMS_P1;PMS_P2;Temp;Humidity;BMP_temperature;BMP_pressure;BME280_temperature;BME280_humidity;BME280_pressure;Samples;Min_cycle;Max_cycle;Signal;HPM_P1;HPM_P2
2021/10/19 00:00:41;;;;;;;;;;;;;;;9.75;91.21;100733.28;5012779;28;819;-62
2021/10/19 00:03:08;;;;;;;;;;;;;;;9.75;90.97;100728.56;5012823;28;834;-62
2021/10/19 00:05:34;;;;;;;;;;;;;;;9.74;90.91;100738.00;5012890;28;807;-62
2021/10/19 00:08:01;;;;;;;;;;;;;;;9.75;90.79;100730.50;5012602;28;819;-62
2021/10/19 00:10:28;;;;;;;;;;;;;;;9.74;90.39;100735.25;5012584;28;806;-62
2021/10/19 00:12:55;;;;;;;;;;;;;;;9.75;90.76;100733.28;5012473;28;858;-62
2021/10/19 00:15:22;;;;;;;;;;;;;;;9.76;90.70;100735.66;5012394;28;1894;-62
2021/10/19 00:17:48;;;;;;;;;;;;;;;9.80;90.93;100731.00;5012862;28;1034;-62
2021/10/19 00:20:16;;;;;;;;;;;;;;;9.85;90.71;100729.84;5012695;28;822;-62
2021/10/19 00:22:43;;;;;;;;;;;;;;;9.89;90.47;100729.91;5012625;28;803;-62
2021/10/19 00:25:14;;;;;;;;;;;;;;;9.91;90.38;100739.41;5012360;28;1118;-62
2021/10/19 00:27:42;;;;;;;;;;;;;;;9.91;90.55;100731.13;5012207;28;855;-62
2021/10/19 00:30:10;;;;;;;;;;;;;;;9.87;90.00;100735.81;5012395;28;1280;-62
2021/10/19 00:32:37;;;;;;;;;;;;;;;9.83;90.09;100734.97;5012531;28;799;-62
2021/10/19 00:35:04;;;;;;;;;;;;;;;9.80;90.23;100733.75;5012342;28;1909;-62
2021/10/19 00:37:30;;;;;;;;;;;;;;;9.79;90.30;100731.34;4994803;28;1317;-62
2021/10/19 00:39:57;;;;;;;;;;;;;;;9.75;90.11;100731.31;5012271;28;897;-62
2021/10/19 00:42:24;;;;;;;;;;;;;;;9.74;90.03;100731.69;5012420;28;874;-62
2021/10/19 00:44:50;;;;;;;;;;;;;;;9.72;89.71;100739.56;5012035;28;823;-62
2021/10/19 00:47:23;;;;;;;;;;;;;;;9.73;89.87;100735.59;5012587;28;779;-62
2021/10/19 00:49:50;;;;;;;;;;;;;;;9.75;89.93;100733.28;5012029;28;807;-62
2021/10/19 00:52:17;;;;;;;;;;;;;;;9.75;89.99;100727.75;5011223;28;807;-62
2021/10/19 00:54:44;;;;;;;;;;;;;;;9.77;90.11;100733.69;5011983;28;1890;-62
2021/10/19 00:57:11;;;;;;;;;;;;;;;9.77;89.88;100731.75;5011905;28;878;-62
2021/10/19 00:59:41;;;;;;;;;;;;;;;9.77;89.94;100736.44;5012104;28;799;-62
2021/10/19 01:02:09;;;;;;;;;;;;;;;9.76;89.70;100729.34;5011827;28;851;-62
2021/10/19 01:04:35;;;;;;;;;;;;;;;9.73;89.89;100736.44;5011813;28;840;-62
2021/10/19 01:07:02;;;;;;;;;;;;;;;9.71;89.89;100735.22;5011751;28;866;-62
2021/10/19 01:09:29;;;;;;;;;;;;;;;9.67;90.08;100729.63;5011768;28;909;-62
2021/10/19 01:11:56;;;;;;;;;;;;;;;9.65;89.54;100731.97;4994080;28;1166;-62
2021/10/19 01:14:22;;;;;;;;;;;;;;;9.62;89.93;100732.69;5011745;28;819;-62
2021/10/19 01:16:49;;;;;;;;;;;;;;;9.62;89.83;100735.47;5011722;28;1979;-62
2021/10/19 01:19:22;;;;;;;;;;;;;;;9.57;89.45;100727.53;5011458;28;1238;-62
2021/10/19 01:21:59;;;;;;;;;;;;;;;9.53;89.70;100735.75;5011688;28;795;-62
2021/10/19 01:24:25;;;;;;;;;;;;;;;9.51;89.95;100734.53;4994170;28;1316;-62
2021/10/19 01:26:52;;;;;;;;;;;;;;;9.47;89.72;100734.47;5011721;28;882;-62
2021/10/19 01:29:19;;;;;;;;;;;;;;;9.44;89.54;100726.16;5011810;28;807;-62
2021/10/19 01:31:49;;;;;;;;;;;;;;;9.39;89.78;100730.81;4994177;28;1324;-62
2021/10/19 01:34:16;;;;;;;;;;;;;;;9.35;89.86;100731.94;5011537;28;795;-62
2021/10/19 01:36:43;;;;;;;;;;;;;;;9.32;89.92;100738.97;5011471;28;1915;-62
2021/10/19 01:39:09;;;;;;;;;;;;;;;9.29;89.83;100753.53;5011387;28;867;-62
2021/10/19 01:41:37;;;;;;;;;;;;;;;9.24;89.72;100748.34;5011473;28;815;-62
2021/10/19 01:44:04;;;;;;;;;;;;;;;9.21;89.93;100746.28;5011436;28;855;-61
2021/10/19 01:46:31;;;;;;;;;;;;;;;9.19;89.82;100748.63;5011301;28;824;-62
2021/10/19 01:48:58;;;;;;;;;;;;;;;9.17;89.99;100751.78;4993868;28;1225;-62
2021/10/19 01:51:24;;;;;;;;;;;;;;;9.14;89.92;100746.19;5011395;28;815;-62
2021/10/19 01:53:50;;;;;;;;;;;;;;;9.09;89.97;100747.31;5011359;28;858;-62
2021/10/19 01:56:17;;;;;;;;;;;;;;;9.05;90.20;100751.19;5011280;28;1890;-62
2021/10/19 01:58:44;;;;;;;;;;;;;;;9.06;90.48;100752.75;5009691;28;1336;-62
2021/10/19 02:01:10;;;;;;;;;;;;;;;9.10;90.53;100753.63;5011439;28;858;-62
2021/10/19 02:03:37;;;;;;;;;;;;;;;9.11;90.50;100756.00;5012765;28;807;-62
2021/10/19 02:06:06;;;;;;;;;;;;;;;9.13;90.32;100761.97;5015145;28;877;-62
2021/10/19 02:08:33;;;;;;;;;;;;;;;9.15;90.31;100762.38;5014914;28;850;-62
2021/10/19 02:11:00;;;;;;;;;;;;;;;9.17;90.41;100757.28;5015138;28;827;-62
2021/10/19 02:13:27;;;;;;;;;;;;;;;9.21;90.39;100757.34;5014770;28;799;-62
2021/10/19 02:15:54;;;;;;;;;;;;;;;9.28;90.37;100754.69;5014588;28;1894;-62
2021/10/19 02:18:21;;;;;;;;;;;;;;;9.35;90.44;100748.50;5014529;28;1231;-62
2021/10/19 02:20:47;;;;;;;;;;;;;;;9.38;90.32;100751.28;4996961;28;1316;-62
2021/10/19 02:23:13;;;;;;;;;;;;;;;9.42;90.23;100748.59;5015107;28;858;-62
2021/10/19 02:25:40;;;;;;;;;;;;;;;9.46;90.17;100748.66;5014614;28;808;-62
2021/10/19 02:28:07;;;;;;;;;;;;;;;9.49;90.11;100747.91;5014842;28;906;-62
2021/10/19 02:30:34;;;;;;;;;;;;;;;9.52;90.25;100749.94;5014724;28;803;-62
2021/10/19 02:33:00;;;;;;;;;;;;;;;9.54;90.31;100751.16;5015233;28;759;-62
2021/10/19 02:35:26;;;;;;;;;;;;;;;9.58;90.01;100748.41;5014627;28;1895;-62
2021/10/19 02:37:53;;;;;;;;;;;;;;;9.61;90.23;100744.94;5014600;28;854;-62
2021/10/19 02:40:20;;;;;;;;;;;;;;;9.67;90.07;100751.72;5014529;28;890;-62
2021/10/19 02:42:47;;;;;;;;;;;;;;;9.73;90.07;100755.75;5014223;28;807;-62
2021/10/19 02:45:14;;;;;;;;;;;;;;;9.76;90.19;100749.47;5014169;28;834;-62
2021/10/19 02:47:41;;;;;;;;;;;;;;;9.77;89.89;100758.53;5014112;28;839;-62
2021/10/19 02:50:09;;;;;;;;;;;;;;;9.82;90.10;100759.03;5014115;28;819;-62
2021/10/19 02:52:37;;;;;;;;;;;;;;;9.88;89.94;100750.41;5014434;28;787;-62
2021/10/19 02:55:04;;;;;;;;;;;;;;;9.86;89.82;100759.06;5014218;28;1890;-62
2021/10/19 02:57:31;;;;;;;;;;;;;;;9.90;90.05;100761.88;5014026;28;861;-62
2021/10/19 02:59:58;;;;;;;;;;;;;;;10.06;89.96;100761.69;5014467;28;886;-61
2021/10/19 03:02:24;;;;;;;;;;;;;;;10.43;88.60;100767.28;5014040;28;831;-61
2021/10/19 03:04:51;;;;;;;;;;;;;;;10.68;87.48;100775.84;5014459;28;822;-61
2021/10/19 03:07:17;;;;;;;;;;;;;;;10.77;86.51;100768.03;5014368;28;757;-61
2021/10/19 03:09:44;;;;;;;;;;;;;;;10.80;85.74;100778.34;5013729;28;847;-61
2021/10/19 03:12:11;;;;;;;;;;;;;;;10.76;86.02;100785.00;4996117;28;1193;-61
2021/10/19 03:14:38;;;;;;;;;;;;;;;10.68;86.42;100784.13;5013065;28;827;-61
2021/10/19 03:17:04;;;;;;;;;;;;;;;10.62;86.65;100777.34;5013217;28;1882;-61
2021/10/19 03:19:31;;;;;;;;;;;;;;;10.57;86.72;100772.97;5013321;28;1390;-61
2021/10/19 03:21:58;;;;;;;;;;;;;;;10.51;87.15;100771.72;5013479;28;784;-61
2021/10/19 03:24:24;;;;;;;;;;;;;;;10.45;87.15;100775.97;5013272;28;840;-61
2021/10/19 03:26:51;;;;;;;;;;;;;;;10.39;87.78;100775.53;5013367;28;843;-61
2021/10/19 03:29:18;;;;;;;;;;;;;;;10.40;87.40;100776.34;5013316;28;815;-61
2021/10/19 03:31:44;;;;;;;;;;;;;;;10.39;87.68;100772.78;5013328;28;881;-61
2021/10/19 03:34:11;;;;;;;;;;;;;;;10.40;87.84;100763.31;5013164;28;819;-61
2021/10/19 03:36:38;;;;;;;;;;;;;;;10.42;87.59;100762.94;5013148;28;1914;-61
2021/10/19 03:39:04;;;;;;;;;;;;;;;10.46;87.32;100762.97;5013124;28;866;-61
2021/10/19 03:41:31;;;;;;;;;;;;;;;10.48;87.34;100763.41;5013186;28;834;-61
2021/10/19 03:43:57;;;;;;;;;;;;;;;10.45;87.24;100759.41;5013076;28;871;-61
2021/10/19 03:46:24;;;;;;;;;;;;;;;10.40;87.43;100763.31;5012954;28;818;-61
2021/10/19 03:48:50;;;;;;;;;;;;;;;10.36;87.46;100773.53;5013177;28;850;-61
2021/10/19 03:51:17;;;;;;;;;;;;;;;10.31;87.52;100781.38;4995301;28;1193;-61
2021/10/19 03:53:44;;;;;;;;;;;;;;;10.26;87.96;100785.22;5012918;28;878;-62
2021/10/19 03:56:11;;;;;;;;;;;;;;;10.13;87.75;100792.16;5012722;28;1890;-62
2021/10/19 03:58:38;;;;;;;;;;;;;;;9.93;88.12;100789.53;5012826;28;827;-62
2021/10/19 04:01:05;;;;;;;;;;;;;;;9.85;88.46;100793.38;5012719;28;891;-62
2021/10/19 04:03:31;;;;;;;;;;;;;;;9.81;88.95;100792.53;5012785;28;799;-62
2021/10/19 04:05:58;;;;;;;;;;;;;;;9.76;88.87;100807.44;5012709;28;854;-62
2021/10/19 04:08:25;;;;;;;;;;;;;;;9.71;89.23;100807.00;5012610;28;807;-61
2021/10/19 04:10:52;;;;;;;;;;;;;;;9.66;89.25;100807.28;5012634;28;811;-61
2021/10/19 04:13:19;;;;;;;;;;;;;;;9.67;89.00;100808.91;5012489;28;902;-61
2021/10/19 04:15:45;;;;;;;;;;;;;;;9.66;89.11;100801.78;5012626;28;1886;-61
2021/10/19 04:18:12;;;;;;;;;;;;;;;9.60;88.69;100809.56;5012615;28;1449;-62
2021/10/19 04:20:38;;;;;;;;;;;;;;;9.55;89.21;100810.69;4994839;28;1304;-61
2021/10/19 04:23:05;;;;;;;;;;;;;;;9.46;88.89;100814.88;5012375;28;898;-61
2021/10/19 04:25:31;;;;;;;;;;;;;;;9.37;89.33;100815.13;5012206;28;826;-61
2021/10/19 04:27:58;;;;;;;;;;;;;;;9.37;89.84;100815.94;5012291;28;823;-61
2021/10/19 04:30:24;;;;;;;;;;;;;;;9.40;89.39;100814.38;5012228;28;908;-61
2021/10/19 04:32:51;;;;;;;;;;;;;;;9.37;89.62;100821.44;5012273;28;815;-61
2021/10/19 04:35:18;;;;;;;;;;;;;;;9.39;89.85;100823.84;5012040;28;1916;-61
2021/10/19 04:37:44;;;;;;;;;;;;;;;9.38;89.43;100825.00;4994579;28;1197;-62
2021/10/19 04:40:12;;;;;;;;;;;;;;;9.33;89.47;100833.59;5012009;28;1033;-62
2021/10/19 04:42:39;;;;;;;;;;;;;;;9.33;89.58;100830.84;5012124;28;850;-61
2021/10/19 04:45:07;;;;;;;;;;;;;;;9.30;89.43;100839.84;5011983;28;870;-62
2021/10/19 04:47:34;;;;;;;;;;;;;;;9.24;89.53;100846.81;5012047;28;846;-62
2021/10/19 04:50:00;;;;;;;;;;;;;;;9.22;89.73;100846.41;5012025;28;854;-61
2021/10/19 04:52:27;;;;;;;;;;;;;;;9.15;89.60;100850.66;5012065;28;843;-62
2021/10/19 04:54:54;;;;;;;;;;;;;;;9.04;89.76;100854.38;5011695;28;1919;-61
2021/10/19 04:57:21;;;;;;;;;;;;;;;8.93;90.07;100856.94;4994224;28;1402;-61
2021/10/19 04:59:48;;;;;;;;;;;;;;;8.93;90.76;100862.44;5011909;28;863;-61
2021/10/19 05:02:15;;;;;;;;;;;;;;;9.06;90.89;100861.09;5011769;28;863;-61
2021/10/19 05:04:42;;;;;;;;;;;;;;;9.18;90.66;100865.66;5011911;28;835;-61
2021/10/19 05:07:07;;;;;;;;;;;;;;;9.33;90.87;100878.53;5011743;28;863;-61
2021/10/19 05:09:34;;;;;;;;;;;;;;;9.56;91.14;100866.69;5011758;28;893;-61
2021/10/19 05:17:16;;;;;;;;;;;;;;;10.01;88.68;100885.13;5883494;23;1723;-62
2021/10/19 05:19:43;;;;;;;;;;;;;;;10.16;88.03;100894.44;5011850;28;1408;-61
2021/10/19 05:22:09;;;;;;;;;;;;;;;10.25;86.61;100898.88;5011682;28;885;-61
2021/10/19 05:24:35;;;;;;;;;;;;;;;10.40;86.38;100909.00;5011671;28;877;-61
2021/10/19 05:27:01;;;;;;;;;;;;;;;10.52;85.74;100910.72;5011656;28;834;-62
2021/10/19 05:29:30;;;;;;;;;;;;;;;10.66;85.13;100912.88;5011836;28;877;-61
2021/10/19 05:31:56;;;;;;;;;;;;;;;10.76;83.62;100918.53;5011583;28;858;-62
2021/10/19 05:34:24;;;;;;;;;;;;;;;10.86;81.42;100910.72;5011587;28;889;-61
2021/10/19 05:36:50;;;;;;;;;;;;;;;10.99;81.15;100923.94;5011451;28;1985;-62
2021/10/19 05:39:18;;;;;;;;;;;;;;;11.10;80.49;100926.03;5013922;28;835;-61
2021/10/19 05:41:44;;;;;;;;;;;;;;;11.23;80.58;100927.34;5015394;28;815;-62
2021/10/19 05:44:11;;;;;;;;;;;;;;;11.36;80.18;100938.97;4997721;28;1224;-62
2021/10/19 05:46:37;;;;;;;;;;;;;;;11.39;80.11;100947.31;5015285;28;795;-62
2021/10/19 05:49:04;;;;;;;;;;;;;;;11.41;79.71;100942.19;5015235;28;916;-62
2021/10/19 05:51:31;;;;;;;;;;;;;;;11.51;79.48;100945.44;5015308;28;905;-62
2021/10/19 05:53:59;;;;;;;;;;;;;;;11.65;79.73;100946.34;5015143;28;819;-62
2021/10/19 05:56:25;;;;;;;;;;;;;;;11.75;78.86;100950.38;5015256;28;1890;-62
2021/10/19 05:58:52;;;;;;;;;;;;;;;11.83;78.59;100954.81;5015053;28;863;-62
2021/10/19 06:01:19;;;;;;;;;;;;;;;11.91;77.77;100958.47;5015075;28;862;-62
2021/10/19 06:03:45;;;;;;;;;;;;;;;12.05;77.29;100960.53;5014967;28;811;-62
2021/10/19 06:06:13;;;;;;;;;;;;;;;12.29;75.86;100961.94;5014960;28;926;-62
2021/10/19 06:08:39;;;;;;;;;;;;;;;12.62;75.09;100968.44;5015099;28;901;-62
2021/10/19 06:11:06;;;;;;;;;;;;;;;12.85;74.65;100962.63;4997266;28;1213;-62
2021/10/19 06:13:33;;;;;;;;;;;;;;;13.00;73.59;100971.78;5014850;28;886;-62
2021/10/19 06:16:00;;;;;;;;;;;;;;;13.34;72.80;100968.75;4996932;28;1891;-63
2021/10/19 06:18:27;;;;;;;;;;;;;;;13.72;70.93;100967.22;5014522;28;1298;-62
2021/10/19 06:20:54;;;;;;;;;;;;;;;14.17;70.40;100975.16;5014828;28;846;-62
2021/10/19 06:23:22;;;;;;;;;;;;;;;14.37;69.68;100973.53;5014674;28;803;-62
2021/10/19 06:25:49;;;;;;;;;;;;;;;14.29;69.19;100975.56;5014530;28;857;-62
2021/10/19 06:28:16;;;;;;;;;;;;;;;14.25;70.23;100979.50;5014609;28;855;-63
2021/10/19 06:30:43;;;;;;;;;;;;;;;14.17;68.36;100986.28;5014447;28;882;-62
2021/10/19 06:33:10;;;;;;;;;;;;;;;14.03;66.81;100979.53;5014448;28;853;-62
2021/10/19 06:35:37;;;;;;;;;;;;;;;14.19;66.95;100981.09;5014287;28;1911;-62
2021/10/19 06:38:04;;;;;;;;;;;;;;;14.41;65.40;100979.09;5014603;28;882;-62
2021/10/19 06:40:30;;;;;;;;;;;;;;;14.77;63.97;100979.84;5014314;28;822;-62
2021/10/19 06:42:56;;;;;;;;;;;;;;;15.54;63.69;100981.06;5014239;28;799;-62
2021/10/19 06:45:24;;;;;;;;;;;;;;;16.02;60.33;100980.31;5014106;28;795;-62
2021/10/19 06:47:51;;;;;;;;;;;;;;;15.95;59.56;100988.75;5014271;28;941;-62
2021/10/19 06:50:17;;;;;;;;;;;;;;;16.01;60.42;100992.69;5012972;28;811;-62
2021/10/19 06:52:44;;;;;;;;;;;;;;;16.49;59.54;100981.47;5014051;28;846;-61
2021/10/19 06:55:10;;;;;;;;;;;;;;;16.59;58.41;100981.75;5013921;28;1899;-62
2021/10/19 06:57:44;;;;;;;;;;;;;;;16.62;58.40;100983.72;5013981;28;851;-62
2021/10/19 07:00:12;;;;;;;;;;;;;;;16.83;58.43;100979.91;5014688;28;763;-62
2021/10/19 07:02:38;;;;;;;;;;;;;;;17.22;56.74;100984.22;5014590;28;807;-63
2021/10/19 07:05:05;;;;;;;;;;;;;;;17.48;55.79;100983.44;5014175;28;859;-61
2021/10/19 07:07:32;;;;;;;;;;;;;;;16.99;57.00;100993.31;5013998;28;835;-62
2021/10/19 07:10:00;;;;;;;;;;;;;;;17.10;56.79;100991.16;5013864;28;851;-62
2021/10/19 07:12:27;;;;;;;;;;;;;;;16.62;57.93;100995.69;4996409;28;1304;-62
2021/10/19 07:14:54;;;;;;;;;;;;;;;16.39;58.78;100993.53;5013925;28;1944;-61
2021/10/19 07:17:21;;;;;;;;;;;;;;;16.13;59.95;101000.56;5013981;28;1376;-62
2021/10/19 07:19:48;;;;;;;;;;;;;;;16.73;58.78;101004.72;5013908;28;830;-62
2021/10/19 07:22:15;;;;;;;;;;;;;;;17.31;57.81;100999.25;5013839;28;811;-63
2021/10/19 07:24:41;;;;;;;;;;;;;;;17.63;56.53;101005.63;5014206;28;841;-63
2021/10/19 07:27:08;;;;;;;;;;;;;;;17.58;55.38;101000.47;4996303;28;1189;-62
2021/10/19 07:29:35;;;;;;;;;;;;;;;17.68;55.78;101005.91;5013482;28;929;-63
2021/10/19 07:32:02;;;;;;;;;;;;;;;17.72;55.31;101003.84;5014026;28;763;-62
2021/10/19 07:34:28;;;;;;;;;;;;;;;17.92;55.69;101005.97;5013323;28;834;-62
2021/10/19 07:36:55;;;;;;;;;;;;;;;18.29;54.62;101001.38;5013164;28;1971;-63
2021/10/19 07:39:22;;;;;;;;;;;;;;;18.57;54.98;101005.66;5013463;28;819;-63
2021/10/19 07:41:49;;;;;;;;;;;;;;;18.88;53.01;101011.09;5013416;28;815;-62
2021/10/19 07:44:16;;;;;;;;;;;;;;;18.29;53.18;101013.34;5013052;28;858;-62
2021/10/19 07:46:41;;;;;;;;;;;;;;;17.26;55.06;101010.91;5013229;28;799;-62
2021/10/19 07:49:08;;;;;;;;;;;;;;;16.29;57.71;101016.75;5013052;28;886;-62
2021/10/19 07:51:35;;;;;;;;;;;;;;;16.32;58.41;101018.69;5012930;28;874;-62
2021/10/19 07:54:02;;;;;;;;;;;;;;;16.71;57.00;101006.34;5012949;28;812;-62
2021/10/19 07:56:28;;;;;;;;;;;;;;;16.10;57.64;101018.88;5013041;28;1882;-61
2021/10/19 07:58:55;;;;;;;;;;;;;;;15.83;58.95;101020.69;5012901;28;880;-62
2021/10/19 08:01:22;;;;;;;;;;;;;;;15.78;59.20;101021.13;5012457;28;807;-62
2021/10/19 08:03:49;;;;;;;;;;;;;;;15.99;59.04;101011.81;5012810;28;854;-62
2021/10/19 08:06:16;;;;;;;;;;;;;;;16.09;59.58;101019.31;5012838;28;806;-62
2021/10/19 08:08:42;;;;;;;;;;;;;;;16.88;58.98;101012.97;5012652;28;894;-62
2021/10/19 08:11:09;;;;;;;;;;;;;;;17.85;55.67;101009.69;5012976;28;807;-62
2021/10/19 08:13:36;;;;;;;;;;;;;;;18.27;55.18;101018.59;4994921;28;1383;-62
2021/10/19 08:16:03;;;;;;;;;;;;;;;18.21;54.52;101013.91;5012311;28;1940;-62
2021/10/19 08:18:29;;;;;;;;;;;;;;;17.30;54.05;101008.88;5012326;28;1285;-62
2021/10/19 08:20:56;;;;;;;;;;;;;;;16.62;56.64;101011.63;5012458;28;897;-62
2021/10/19 08:23:23;;;;;;;;;;;;;;;16.32;57.59;101013.91;5012393;28;842;-62
2021/10/19 08:25:50;;;;;;;;;;;;;;;16.22;57.78;101012.00;5012692;28;827;-62
2021/10/19 08:28:34;;;;;;;;;;;;;;;16.15;57.65;101008.47;4994660;28;1169;-62
2021/10/19 08:31:00;;;;;;;;;;;;;;;15.77;58.24;101006.41;5012395;28;795;-62
2021/10/19 08:33:27;;;;;;;;;;;;;;;15.49;59.18;101012.91;5012259;28;886;-62
2021/10/19 08:35:54;;;;;;;;;;;;;;;15.41;59.58;101006.59;4994448;28;1914;-62
2021/10/19 08:38:20;;;;;;;;;;;;;;;15.39;60.26;101016.56;5012498;28;858;-62
2021/10/19 08:40:47;;;;;;;;;;;;;;;15.47;60.21;101004.19;4994484;28;1165;-62
2021/10/19 08:43:14;;;;;;;;;;;;;;;15.46;59.66;101010.94;5012187;28;834;-62
2021/10/19 08:45:41;;;;;;;;;;;;;;;15.56;58.78;101012.09;5011923;28;890;-62
2021/10/19 08:48:09;;;;;;;;;;;;;;;15.56;59.46;101007.31;4994527;28;1221;-62
2021/10/19 08:50:35;;;;;;;;;;;;;;;15.65;58.81;100999.28;5012008;28;874;-62
2021/10/19 08:53:02;;;;;;;;;;;;;;;15.71;58.49;101003.25;5012073;28;874;-62
2021/10/19 08:55:29;;;;;;;;;;;;;;;15.68;58.79;100998.47;5011810;28;1863;-62
2021/10/19 08:58:01;;;;;;;;;;;;;;;15.73;57.77;101002.84;5011957;28;854;-62
2021/10/19 09:00:29;;;;;;;;;;;;;;;15.85;57.56;101007.13;5011872;28;866;-62
2021/10/19 09:02:56;;;;;;;;;;;;;;;15.94;57.28;101001.91;4994317;28;1356;-62
2021/10/19 09:05:23;;;;;;;;;;;;;;;15.99;57.04;101007.03;4994282;28;1407;-63
2021/10/19 09:07:58;;;;;;;;;;;;;;;16.13;56.06;101006.13;5011833;28;901;-62
2021/10/19 09:10:26;;;;;;;;;;;;;;;16.38;55.74;101000.31;4994389;28;1299;-62
2021/10/19 09:12:57;;;;;;;;;;;;;;;16.43;54.63;100997.06;4993332;28;799;-62
2021/10/19 09:15:27;;;;;;;;;;;;;;;16.43;54.01;100997.06;5011715;28;1894;-63
2021/10/19 09:17:59;;;;;;;;;;;;;;;16.29;53.43;100992.41;5011799;28;1368;-62
2021/10/19 09:20:25;;;;;;;;;;;;;;;16.25;54.50;100996.44;5011789;28;878;-62
2021/10/19 09:22:56;;;;;;;;;;;;;;;16.46;54.82;100990.66;5011976;28;878;-62
2021/10/19 09:25:26;;;;;;;;;;;;;;;16.59;54.25;100988.13;5011631;28;839;-62
2021/10/19 09:27:54;;;;;;;;;;;;;;;16.74;54.24;100983.19;5012399;28;846;-62
2021/10/19 09:30:30;;;;;;;;;;;;;;;16.99;52.81;100980.13;4994235;28;867;-62
2021/10/19 09:32:57;;;;;;;;;;;;;;;17.13;51.29;100973.56;5011614;28;838;-62
2021/10/19 09:35:23;;;;;;;;;;;;;;;17.29;50.96;100979.31;5011457;28;1914;-62
2021/10/19 09:37:58;;;;;;;;;;;;;;;17.57;50.09;100966.16;5011532;28;893;-63
2021/10/19 09:40:32;;;;;;;;;;;;;;;17.74;48.84;100967.09;5011506;28;806;-62
2021/10/19 09:43:00;;;;;;;;;;;;;;;17.68;47.33;100966.78;5011360;28;952;-62
2021/10/19 09:45:27;;;;;;;;;;;;;;;17.78;47.38;100961.44;5011527;28;842;-63
2021/10/19 09:47:55;;;;;;;;;;;;;;;17.85;47.14;100959.34;5011685;28;846;-63
2021/10/19 09:50:21;;;;;;;;;;;;;;;18.16;46.82;100965.63;5011421;28;799;-62
2021/10/19 09:52:47;;;;;;;;;;;;;;;18.55;46.35;100958.50;5011412;28;807;-63
2021/10/19 09:55:16;;;;;;;;;;;;;;;18.61;46.10;100955.22;5011363;28;1933;-63
2021/10/19 09:57:43;;;;;;;;;;;;;;;18.73;46.51;100954.53;5011452;28;807;-63
2021/10/19 10:00:11;;;;;;;;;;;;;;;18.74;43.67;100954.13;4993845;28;1388;-62
2021/10/19 10:02:38;;;;;;;;;;;;;;;18.68;43.31;100955.06;5011284;28;819;-62
2021/10/19 10:05:07;;;;;;;;;;;;;;;19.15;42.98;100947.28;5011347;28;815;-63
2021/10/19 10:07:40;;;;;;;;;;;;;;;19.75;41.99;100949.91;5011263;28;897;-63
2021/10/19 10:10:08;;;;;;;;;;;;;;;20.11;40.54;100943.41;5011270;28;859;-62
2021/10/19 10:12:35;;;;;;;;;;;;;;;20.05;41.28;100941.56;5011110;28;854;-63
2021/10/19 10:15:02;;;;;;;;;;;;;;;19.98;41.36;100934.91;5011127;28;1890;-62
2021/10/19 10:17:29;;;;;;;;;;;;;;;19.91;41.00;100931.53;5011330;28;1361;-63
2021/10/19 10:20:05;;;;;;;;;;;;;;;19.85;42.23;100930.47;5011202;28;858;-62
2021/10/19 10:22:32;;;;;;;;;;;;;;;20.10;41.77;100924.19;5011087;28;894;-63
2021/10/19 10:25:06;;;;;;;;;;;;;;;20.57;40.64;100921.75;5012964;28;823;-63
2021/10/19 10:27:33;;;;;;;;;;;;;;;20.68;38.43;100923.47;5014549;28;878;-62
2021/10/19 10:30:00;;;;;;;;;;;;;;;20.54;38.51;100916.97;5014514;28;847;-62
2021/10/19 10:32:28;;;;;;;;;;;;;;;20.39;39.98;100916.56;5014748;28;893;-62
2021/10/19 10:35:11;;;;;;;;;;;;;;;19.91;40.01;100917.50;5014536;28;803;-62
2021/10/19 10:37:50;;;;;;;;;;;;;;;19.83;41.73;100908.47;5014467;28;862;-62
2021/10/19 10:40:32;;;;;;;;;;;;;;;19.51;42.04;100912.81;5014254;28;791;-63
2021/10/19 10:43:15;;;;;;;;;;;;;;;19.87;42.15;100905.56;5014270;28;898;-63
2021/10/19 10:45:42;;;;;;;;;;;;;;;20.49;42.32;100903.47;5014383;28;890;-63
2021/10/19 10:48:09;;;;;;;;;;;;;;;20.49;42.33;100906.28;5014386;28;882;-63
2021/10/19 10:50:37;;;;;;;;;;;;;;;19.58;40.63;100901.41;5014161;28;823;-62
2021/10/19 10:53:05;;;;;;;;;;;;;;;19.03;41.17;100900.31;5014130;28;898;-62
2021/10/19 10:55:42;;;;;;;;;;;;;;;18.91;41.27;100910.19;5014084;28;1886;-62
2021/10/19 10:58:09;;;;;;;;;;;;;;;18.86;41.10;100902.31;5014015;28;823;-62
2021/10/19 11:00:36;;;;;;;;;;;;;;;18.52;41.93;100906.16;5014004;28;869;-62
2021/10/19 11:03:14;;;;;;;;;;;;;;;18.20;42.37;100906.00;5013856;28;831;-62
2021/10/19 11:05:52;;;;;;;;;;;;;;;17.75;42.95;100904.34;5013923;28;861;-63
2021/10/19 11:08:22;;;;;;;;;;;;;;;17.48;43.84;100904.41;5013845;28;881;-62
2021/10/19 11:11:08;;;;;;;;;;;;;;;17.21;44.94;100904.41;5013805;28;852;-62
2021/10/19 11:13:54;;;;;;;;;;;;;;;17.12;45.54;100899.34;5014450;28;771;-62
2021/10/19 11:16:30;;;;;;;;;;;;;;;17.37;45.62;100892.59;5013617;28;1914;-62
2021/10/19 11:18:57;;;;;;;;;;;;;;;17.36;45.24;100891.81;4995714;28;1419;-61
2021/10/19 11:21:24;;;;;;;;;;;;;;;17.31;45.56;100881.91;5013632;28;799;-62
2021/10/19 11:23:51;;;;;;;;;;;;;;;17.45;45.88;100885.69;5013455;28;857;-62
2021/10/19 11:26:17;;;;;;;;;;;;;;;17.67;45.33;100886.91;5013370;28;890;-62
2021/10/19 11:28:45;;;;;;;;;;;;;;;18.26;44.98;100884.69;5013414;28;913;-62
2021/10/19 11:31:12;;;;;;;;;;;;;;;19.59;41.57;100874.19;5013339;28;811;-61
2021/10/19 11:33:39;;;;;;;;;;;;;;;20.11;40.49;100862.03;4995734;28;890;-63
2021/10/19 11:36:05;;;;;;;;;;;;;;;20.34;40.57;100872.22;5012630;28;1914;-63
2021/10/19 11:38:39;;;;;;;;;;;;;;;20.02;40.67;100866.72;5013258;28;835;-63
2021/10/19 11:41:07;;;;;;;;;;;;;;;19.19;42.27;100857.53;4995537;28;1191;-62
2021/10/19 11:43:35;;;;;;;;;;;;;;;18.74;42.59;100866.53;5013047;28;839;-63
2021/10/19 11:46:05;;;;;;;;;;;;;;;18.41;43.05;100872.00;5013052;28;843;-62
2021/10/19 11:48:32;;;;;;;;;;;;;;;18.09;42.99;100867.84;5012988;28;867;-62
2021/10/19 11:51:01;;;;;;;;;;;;;;;17.77;43.44;100868.38;5012904;28;847;-62
2021/10/19 11:53:29;;;;;;;;;;;;;;;17.68;44.04;100863.31;5012983;28;819;-62
2021/10/19 11:55:55;;;;;;;;;;;;;;;17.48;43.76;100863.28;5012792;28;1890;-62
2021/10/19 11:58:25;;;;;;;;;;;;;;;17.50;43.53;100855.25;5013043;28;894;-62
2021/10/19 12:00:52;;;;;;;;;;;;;;;17.52;43.11;100866.81;5013009;28;873;-62
2021/10/19 12:03:19;;;;;;;;;;;;;;;17.40;43.18;100842.25;4995267;28;1316;-62
2021/10/19 12:05:46;;;;;;;;;;;;;;;17.74;43.14;100869.22;5011736;28;1248;-61
2021/10/19 12:08:13;;;;;;;;;;;;;;;17.78;42.52;100866.38;5012865;28;844;-61
2021/10/19 12:10:46;;;;;;;;;;;;;;;17.73;42.64;100871.25;5012850;28;842;-62
2021/10/19 12:13:15;;;;;;;;;;;;;;;17.77;43.00;100862.78;5012769;28;871;-62
2021/10/19 12:15:41;;;;;;;;;;;;;;;17.91;43.61;100862.56;4994929;28;1894;-62
2021/10/19 12:18:14;;;;;;;;;;;;;;;17.98;44.21;100860.84;5012043;28;1504;-62
2021/10/19 12:20:41;;;;;;;;;;;;;;;17.85;44.18;100863.47;5012601;28;878;-62
2021/10/19 12:23:09;;;;;;;;;;;;;;;17.65;44.39;100869.78;5012451;28;877;-62
2021/10/19 12:25:37;;;;;;;;;;;;;;;17.53;44.51;100868.38;5012407;28;847;-62
2021/10/19 12:28:05;;;;;;;;;;;;;;;17.54;45.22;100869.19;5012494;28;869;-62
2021/10/19 12:30:41;;;;;;;;;;;;;;;17.56;45.53;100875.13;5012366;28;826;-62
2021/10/19 12:33:25;;;;;;;;;;;;;;;17.41;45.68;100869.00;5012390;28;811;-62
2021/10/19 12:35:57;;;;;;;;;;;;;;;17.32;45.75;100877.88;4994719;28;1922;-61
2021/10/19 12:38:33;;;;;;;;;;;;;;;17.34;45.83;100869.09;5012240;28;799;-62
2021/10/19 12:41:16;;;;;;;;;;;;;;;17.42;46.14;100878.16;5012086;28;872;-62
2021/10/19 12:43:47;;;;;;;;;;;;;;;17.38;46.44;100875.41;5012225;28;861;-62
2021/10/19 12:46:15;;;;;;;;;;;;;;;17.42;46.63;100875.38;5012130;28;808;-62
2021/10/19 12:48:42;;;;;;;;;;;;;;;17.41;46.58;100880.16;5011160;28;866;-62
2021/10/19 12:51:10;;;;;;;;;;;;;;;17.37;46.50;100878.63;5012090;28;826;-62
2021/10/19 12:53:37;;;;;;;;;;;;;;;17.30;46.70;100880.34;5012303;28;857;-62
2021/10/19 12:56:03;;;;;;;;;;;;;;;17.36;46.86;100877.84;5011934;28;2238;-62
2021/10/19 12:58:32;;;;;;;;;;;;;;;17.33;46.17;100879.47;5011919;28;863;-62
2021/10/19 13:01:02;;;;;;;;;;;;;;;17.29;46.29;100889.13;5011993;28;810;-62
2021/10/19 13:03:29;;;;;;;;;;;;;;;17.29;45.98;100884.31;5012025;28;830;-62
2021/10/19 13:05:56;;;;;;;;;;;;;;;17.18;45.53;100891.31;4994703;28;1220;-62